Time;durP1;ratioP1;P1;durP2;ratioP2;P2;SDS_P1;SDS_P2;PMS_P1;PMS_P2;Temp;Humidity;BMP_temperature;BMP_pressure;BME280_temperature;BME280_humidity;BME280_pressure;Samples;Min_cycle;Max_cycle;Signal;HPM_P1;HPM_P2
2021/04/16 00:00:00;;;;;;;10.68;6.07;;;;;;;0.48;65.17;97226.94;5006980;28;20057;-65
2021/04/16 00:02:27;;;;;;;13.32;6.35;;;;;;;0.54;64.62;97225.78;5004877;28;20076;-63
2021/04/16 00:04:52;;;;;;;9.68;6.45;;;;;;;0.47;65.12;97209.16;4992695;28;20382;-64
2021/04/16 00:07:18;;;;;;;10.35;6.10;;;;;;;0.55;64.67;97215.81;4980808;28;20125;-63
2021/04/16 00:09:43;;;;;;;7.45;5.15;;;;;;;0.50;64.75;97213.16;4985882;28;20073;-62
2021/04/16 00:12:10;;;;;;;9.32;5.53;;;;;;;0.46;64.62;97206.75;4980533;28;20108;-64
2021/04/16 00:14:36;;;;;;;11.00;5.93;;;;;;;0.41;64.80;97204.13;4984268;28;20061;-62
2021/04/16 00:17:02;;;;;;;9.32;6.22;;;;;;;0.43;64.98;97207.31;4985010;28;20050;-64
2021/04/16 00:19:28;;;;;;;9.88;6.18;;;;;;;0.31;65.47;97195.06;4980736;28;20092;-62
2021/04/16 00:21:53;;;;;;;8.38;6.05;;;;;;;0.30;65.49;97196.16;4984843;28;20078;-62
2021/04/16 00:24:19;;;;;;;9.40;5.97;;;;;;;0.21;66.12;97187.09;4980417;28;20393;-63
2021/04/16 00:26:46;;;;;;;14.27;6.35;;;;;;;0.25;65.89;97181.94;4985142;28;20049;-63
2021/04/16 00:29:11;;;;;;;7.32;5.10;;;;;;;0.21;66.22;97183.63;4998152;28;20042;-65
2021/04/16 00:31:37;;;;;;;9.80;6.00;;;;;;;0.11;66.47;97189.91;5012050;28;20114;-64
2021/04/16 00:34:03;;;;;;;10.55;5.68;;;;;;;0.10;66.77;97182.94;5007720;28;20082;-61
2021/04/16 00:36:31;;;;;;;9.07;6.18;;;;;;;0.19;65.72;97175.81;5005144;28;20038;-63
2021/04/16 00:38:57;;;;;;;8.30;6.20;;;;;;;0.14;66.33;97175.88;5005827;28;20496;-62
2021/04/16 00:41:28;;;;;;;10.35;6.65;;;;;;;0.12;66.31;97170.75;5001621;28;20453;-62
2021/04/16 00:43:54;;;;;;;11.38;7.15;;;;;;;0.12;66.43;97180.75;5003456;28;20477;-63
2021/04/16 00:46:46;;;;;;;10.77;6.82;;;;;;;0.10;66.50;97181.03;4998759;28;20041;-64
2021/04/16 00:49:17;;;;;;;11.05;6.90;;;;;;;0.12;66.18;97175.34;4989392;28;20451;-62
2021/04/16 00:51:46;;;;;;;8.15;5.28;;;;;;;0.04;66.47;97173.28;5003803;28;20049;-62
2021/04/16 00:54:16;;;;;;;10.48;6.35;;;;;;;0.09;66.29;97162.47;4998752;28;20054;-65
2021/04/16 00:56:42;;;;;;;8.18;5.65;;;;;;;0.12;66.10;97167.28;5002685;28;20049;-63
2021/04/16 00:59:09;;;;;;;8.13;5.95;;;;;;;0.04;66.73;97173.28;4999497;28;20033;-61
2021/04/16 01:01:34;;;;;;;10.20;5.80;;;;;;;0.03;66.53;97171.69;5004926;28;20045;-64
2021/04/16 01:04:00;;;;;;;8.85;5.72;;;;;;;0.01;66.61;97165.78;5002085;28;20049;-61
2021/04/16 01:06:25;;;;;;;9.00;5.88;;;;;;;-0.02;66.70;97164.47;4998625;28;20050;-64
2021/04/16 01:08:52;;;;;;;11.43;5.90;;;;;;;-0.04;66.76;97169.34;5003462;28;20042;-64
2021/04/16 01:11:19;;;;;;;8.48;6.20;;;;;;;-0.08;67.05;97162.94;4998443;28;20042;-64
2021/04/16 01:13:46;;;;;;;8.43;6.18;;;;;;;-0.10;67.14;97155.13;5002679;28;20451;-63
2021/04/16 01:16:15;;;;;;;10.68;5.82;;;;;;;-0.15;67.09;97163.25;4998585;28;20132;-62
2021/04/16 01:18:44;;;;;;;8.93;5.93;;;;;;;-0.17;67.74;97160.06;5004004;28;20485;-63
2021/04/16 01:21:21;;;;;;;;;;;;;;;-0.18;67.73;97154.94;4998310;28;20073;-61
2021/04/16 01:23:46;;;;;;;10.60;5.85;;;;;;;-0.21;67.67;97165.22;5010703;28;19917;-62
2021/04/16 01:26:16;;;;;;;11.25;6.05;;;;;;;-0.23;67.85;97161.22;4999690;28;20052;-62
2021/04/16 01:28:42;;;;;;;11.63;6.47;;;;;;;-0.30;68.06;97161.53;5011597;28;20549;-62
2021/04/16 01:31:20;;;;;;;10.30;6.32;;;;;;;-0.30;68.10;97155.34;4991815;28;20137;-60
2021/04/16 01:33:49;;;;;;;9.65;6.60;;;;;;;-0.29;67.99;97159.63;5000798;28;20046;-62
2021/04/16 01:36:18;;;;;;;9.60;6.00;;;;;;;-0.37;68.25;97155.69;4993533;28;20104;-61
2021/04/16 01:38:44;;;;;;;10.05;7.95;;;;;;;-0.33;68.18;97156.72;4992784;28;20034;-63
2021/04/16 01:41:12;;;;;;;13.50;6.80;;;;;;;-0.37;68.34;97157.59;4996468;28;20069;-60
2021/04/16 01:43:40;;;;;;;11.00;7.30;;;;;;;-0.33;68.14;97158.59;5023348;28;20198;-62
2021/04/16 01:46:10;;;;;;;11.48;7.00;;;;;;;-0.40;68.53;97148.16;4999572;28;20046;-63
2021/04/16 01:48:50;;;;;;;10.65;5.88;;;;;;;-0.42;68.67;97166.50;4998813;28;20045;-63
2021/04/16 01:51:26;;;;;;;11.13;6.60;;;;;;;-0.41;68.41;97151.97;4999437;28;20050;-62
2021/04/16 01:54:13;;;;;;;8.75;6.00;;;;;;;-0.51;69.27;97149.38;5002499;28;20112;-62
2021/04/16 01:56:40;;;;;;;10.10;6.78;;;;;;;-0.53;69.17;97154.22;4996583;28;20107;-63
2021/04/16 01:59:13;;;;;;;9.85;6.50;;;;;;;-0.57;69.42;97150.50;4996007;28;20049;-62
2021/04/16 02:01:39;;;;;;;8.95;6.13;;;;;;;-0.59;69.22;97153.47;5004822;28;20073;-63
2021/04/16 02:04:04;;;;;;;10.18;6.65;;;;;;;-0.66;69.68;97142.25;5007899;28;20117;-62
2021/04/16 02:06:34;;;;;;;11.73;6.43;;;;;;;-0.67;70.17;97154.06;5003452;28;20045;-64
2021/04/16 02:09:02;;;;;;;12.55;7.13;;;;;;;-0.66;69.72;97153.81;4996391;28;20042;-62
2021/04/16 02:11:28;;;;;;;11.60;7.20;;;;;;;-0.69;69.66;97145.50;5000962;28;20042;-63
2021/04/16 02:13:53;;;;;;;11.50;6.65;;;;;;;-0.70;69.91;97147.38;5004371;28;20045;-63
2021/04/16 02:16:19;;;;;;;11.10;7.18;;;;;;;-0.71;69.57;97145.78;4997218;28;20045;-64
2021/04/16 02:18:44;;;;;;;11.43;7.00;;;;;;;-0.80;70.63;97142.09;5003537;28;20046;-64
2021/04/16 02:21:10;;;;;;;11.05;6.55;;;;;;;-0.73;69.68;97139.09;4996136;28;20096;-63
2021/04/16 02:23:35;;;;;;;10.43;6.93;;;;;;;-0.71;69.92;97142.28;4995787;28;20574;-63
2021/04/16 02:26:00;;;;;;;10.05;6.85;;;;;;;-0.69;69.23;97143.59;4999384;28;20058;-63
2021/04/16 02:28:26;;;;;;;14.35;8.18;;;;;;;-0.67;69.37;97141.41;4998946;28;20041;-63
2021/04/16 02:30:51;;;;;;;12.43;6.63;;;;;;;-0.75;69.88;97142.03;5003094;28;20057;-63
2021/04/16 02:33:16;;;;;;;10.27;7.47;;;;;;;-0.82;70.00;97134.28;4998541;28;20378;-64
2021/04/16 02:35:42;;;;;;;8.82;5.95;;;;;;;-0.82;70.11;97142.38;5003122;28;20052;-64
2021/04/16 02:38:07;;;;;;;9.88;7.90;;;;;;;-0.70;69.34;97131.25;4994637;28;20475;-63
2021/04/16 02:40:33;;;;;;;13.13;7.15;;;;;;;-0.80;70.03;97137.50;5004986;28;20133;-63
2021/04/16 02:42:58;;;;;;;11.23;6.80;;;;;;;-0.87;70.31;97138.91;5018537;28;20505;-62
2021/04/16 02:45:26;;;;;;;11.07;6.97;;;;;;;-0.85;70.06;97131.38;4998462;28;20791;-64
2021/04/16 02:47:52;;;;;;;11.18;7.38;;;;;;;-0.84;69.79;97130.28;5000511;28;20136;-65
2021/04/16 02:50:23;;;;;;;11.63;6.93;;;;;;;-0.84;69.83;97135.66;4998102;28;20042;-62
2021/04/16 02:52:48;;;;;;;12.82;6.80;;;;;;;-0.89;70.12;97133.81;5000352;28;20057;-63
2021/04/16 02:55:14;;;;;;;11.10;7.57;;;;;;;-0.87;70.05;97139.72;4994078;28;20042;-62
2021/04/16 02:57:40;;;;;;;8.45;6.60;;;;;;;-0.85;69.66;97132.16;5004031;28;20042;-65
2021/04/16 03:00:09;;;;;;;12.57;6.78;;;;;;;-0.87;69.65;97133.53;4995932;28;20042;-62
2021/04/16 03:02:34;;;;;;;9.68;6.95;;;;;;;-0.89;70.11;97130.34;4998668;28;20401;-60
2021/04/16 03:05:00;;;;;;;10.00;6.65;;;;;;;-0.95;70.35;97134.97;5000388;28;20034;-61
2021/04/16 03:07:25;;;;;;;13.18;7.68;;;;;;;-0.98;70.40;97132.81;4994343;28;20052;-61
2021/04/16 03:09:50;;;;;;;8.88;6.97;;;;;;;-0.97;70.55;97129.06;5000540;28;20054;-62
2021/04/16 03:12:16;;;;;;;15.40;7.60;;;;;;;-1.00;70.43;97137.69;5002462;28;20096;-61
2021/04/16 03:14:41;;;;;;;12.00;7.63;;;;;;;-1.06;70.40;97126.16;5005309;28;20057;-60
2021/04/16 03:17:07;;;;;;;10.55;7.20;;;;;;;-1.01;70.46;97136.88;4993007;28;20126;-60
2021/04/16 03:19:32;;;;;;;11.18;7.20;;;;;;;-1.06;70.48;97128.03;5000918;28;20038;-59
2021/04/16 03:21:58;;;;;;;11.45;8.13;;;;;;;-1.04;70.44;97126.69;4991364;28;20492;-62
2021/04/16 03:24:23;;;;;;;13.02;6.82;;;;;;;-1.16;71.13;97118.97;4991920;28;20050;-63
2021/04/16 03:26:48;;;;;;;13.40;8.20;;;;;;;-1.12;70.61;97121.91;5000844;28;20046;-61
2021/04/16 03:29:14;;;;;;;11.13;7.25;;;;;;;-1.19;71.21;97124.91;4995188;28;20042;-61
2021/04/16 03:31:39;;;;;;;9.80;6.68;;;;;;;-1.17;71.09;97111.16;4997821;28;20186;-60
2021/04/16 03:34:05;;;;;;;11.30;7.18;;;;;;;-1.18;71.15;97121.13;4993423;28;20077;-62
2021/04/16 03:36:31;;;;;;;13.05;7.10;;;;;;;-1.28;71.58;97121.19;5000426;28;20038;-61
2021/04/16 03:38:57;;;;;;;9.55;6.65;;;;;;;-1.27;71.43;97117.44;5007549;28;20070;-61
2021/04/16 03:41:23;;;;;;;10.27;6.07;;;;;;;-1.33;72.04;97128.50;5012562;28;20479;-60
2021/04/16 03:43:48;;;;;;;13.75;8.52;;;;;;;-1.36;72.21;97132.56;5001153;28;20049;-60
2021/04/16 03:46:14;;;;;;;13.25;7.13;;;;;;;-1.39;72.28;97131.25;4993221;28;20560;-60
2021/04/16 03:48:40;;;;;;;12.98;7.53;;;;;;;-1.38;72.34;97127.44;4998822;28;20049;-60
2021/04/16 03:51:06;;;;;;;12.35;7.82;;;;;;;-1.32;71.58;97120.16;5001727;28;20081;-59
2021/04/16 03:53:32;;;;;;;9.98;7.03;;;;;;;-1.37;71.94;97130.94;4999103;28;20057;-60
2021/04/16 03:55:57;;;;;;;8.27;6.30;;;;;;;-1.33;71.96;97134.69;4991045;28;20037;-58
2021/04/16 03:58:23;;;;;;;11.00;6.93;;;;;;;-1.43;72.14;97138.22;4999247;28;20652;-59
2021/04/16 04:00:48;;;;;;;13.18;8.52;;;;;;;-1.46;72.25;97127.22;5001999;28;20500;-60
2021/04/16 04:03:14;;;;;;;11.85;7.00;;;;;;;-1.42;72.22;97136.38;4989102;28;20046;-61
2021/04/16 04:05:40;;;;;;;12.63;6.88;;;;;;;-1.38;72.16;97126.66;5004139;28;20124;-61
2021/04/16 04:08:07;;;;;;;11.98;7.50;;;;;;;-1.35;71.54;97134.97;4996238;28;20038;-59
2021/04/16 04:10:36;;;;;;;11.77;7.75;;;;;;;-1.43;72.13;97130.16;5004237;28;20299;-60
2021/04/16 04:13:11;;;;;;;9.07;7.05;;;;;;;-1.44;72.46;97131.25;5002766;28;20046;-61
2021/04/16 04:15:37;;;;;;;17.95;8.85;;;;;;;-1.38;72.06;97138.19;4996788;28;20050;-59
2021/04/16 04:18:07;;;;;;;14.02;8.15;;;;;;;-1.35;71.69;97132.28;4997827;28;20566;-62
2021/04/16 04:20:34;;;;;;;13.10;7.80;;;;;;;-1.37;72.01;97130.94;5002133;28;20062;-60
2021/04/16 04:23:01;;;;;;;13.40;8.10;;;;;;;-1.26;71.47;97132.50;5005265;28;20493;-62
2021/04/16 04:25:29;;;;;;;11.55;7.13;;;;;;;-1.32;71.57;97132.81;5011481;28;20133;-62
2021/04/16 04:27:56;;;;;;;11.95;7.72;;;;;;;-1.30;71.73;97128.75;5016313;28;20119;-58
2021/04/16 04:30:26;;;;;;;13.95;7.60;;;;;;;-1.22;71.34;97135.44;4997648;28;20444;-59
2021/04/16 04:32:51;;;;;;;12.48;8.32;;;;;;;-1.23;71.63;97139.97;5002550;28;20041;-58
2021/04/16 04:35:16;;;;;;;12.57;7.43;;;;;;;-1.26;71.69;97139.72;4998402;28;20038;-58
2021/04/16 04:37:42;;;;;;;12.05;7.93;;;;;;;-1.22;71.43;97141.59;4998040;28;20105;-61
2021/04/16 04:40:09;;;;;;;13.55;8.68;;;;;;;-1.20;71.45;97141.31;4997947;28;20065;-61
2021/04/16 04:42:34;;;;;;;8.93;6.65;;;;;;;-1.20;71.25;97138.63;5002727;28;20073;-61
2021/04/16 04:45:00;;;;;;;14.20;7.78;;;;;;;-1.25;71.55;97135.97;5003776;28;20065;-61
2021/04/16 04:47:25;;;;;;;13.27;7.78;;;;;;;-1.17;71.17;97141.56;4997465;28;20042;-59
2021/04/16 04:49:51;;;;;;;13.55;7.78;;;;;;;-1.16;71.39;97132.41;4999755;28;20049;-60
2021/04/16 04:52:25;;;;;;;13.65;7.95;;;;;;;-1.21;71.85;97135.13;4997220;28;20115;-60
2021/04/16 04:54:53;;;;;;;10.57;7.85;;;;;;;-1.25;72.00;97134.09;5006143;28;20088;-60
2021/04/16 04:57:20;;;;;;;11.23;8.35;;;;;;;-1.24;71.76;97137.56;5009261;28;20046;-59
2021/04/16 04:59:46;;;;;;;12.07;7.70;;;;;;;-1.25;71.88;97139.47;5008985;28;20087;-59
2021/04/16 05:02:12;;;;;;;12.90;7.50;;;;;;;-1.25;72.16;97144.84;4999821;28;20849;-60
2021/04/16 05:04:38;;;;;;;13.63;8.95;;;;;;;-1.21;71.63;97124.38;5012539;28;20138;-62
2021/04/16 05:07:04;;;;;;;11.40;7.75;;;;;;;-1.23;72.22;97144.56;5003889;28;20070;-61
2021/04/16 05:09:29;;;;;;;14.68;8.43;;;;;;;-1.24;72.22;97153.69;4997393;28;20050;-60
2021/04/16 05:11:55;;;;;;;11.65;7.63;;;;;;;-1.09;72.09;97144.75;4998687;28;20060;-60
2021/04/16 05:14:20;;;;;;;12.57;7.88;;;;;;;-0.90;70.88;97151.06;4997151;28;20056;-62
2021/04/16 05:16:46;;;;;;;12.95;8.10;;;;;;;-0.81;70.81;97145.84;5001347;28;20037;-60
2021/04/16 05:19:11;;;;;;;11.50;7.85;;;;;;;-0.65;70.24;97154.59;4987526;28;20064;-60
2021/04/16 05:21:38;;;;;;;10.05;7.45;;;;;;;-0.45;69.38;97148.22;5001786;28;20038;-59
2021/04/16 05:24:08;;;;;;;16.45;7.68;;;;;;;-0.39;69.64;97152.47;4995871;28;20033;-60
2021/04/16 05:26:34;;;;;;;;;;;;;;;-0.32;69.10;97157.53;4999197;28;20046;-62
2021/04/16 05:29:00;;;;;;;22.85;13.57;;;;;;;-0.11;68.21;97155.41;5001309;28;19918;-62
2021/04/16 05:31:26;;;;;;;13.10;8.65;;;;;;;-0.08;68.30;97161.03;4995647;28;20042;-61
2021/04/16 05:33:51;;;;;;;9.02;6.53;;;;;;;0.37;67.18;97152.69;4999815;28;20059;-58
2021/04/16 05:36:16;;;;;;;11.05;8.10;;;;;;;0.39;66.02;97161.28;4997061;28;20523;-65
2021/04/16 05:38:42;;;;;;;13.68;7.72;;;;;;;0.85;64.38;97151.78;5002188;28;20100;-59
2021/04/16 05:41:07;;;;;;;11.85;6.72;;;;;;;1.10;64.73;97161.38;5011613;28;20706;-58
2021/04/16 05:43:33;;;;;;;10.23;6.57;;;;;;;0.72;64.88;97159.50;5004074;28;20125;-60
2021/04/16 05:45:58;;;;;;;10.60;7.40;;;;;;;0.70;64.83;97156.31;5000053;28;20061;-60
2021/04/16 05:48:23;;;;;;;15.18;8.63;;;;;;;1.04;64.50;97166.03;4999048;28;20481;-60
2021/04/16 05:50:49;;;;;;;11.77;6.45;;;;;;;1.68;62.41;97158.25;4998743;28;20034;-59
2021/04/16 05:53:14;;;;;;;9.95;6.80;;;;;;;1.24;63.23;97173.03;4996647;28;20184;-61
2021/04/16 05:55:40;;;;;;;14.00;7.30;;;;;;;1.64;62.27;97159.13;5001750;28;20034;-61
2021/04/16 05:58:07;;;;;;;10.80;6.28;;;;;;;2.27;59.87;97166.59;4992062;28;20046;-61
2021/04/16 06:00:32;;;;;;;12.00;6.93;;;;;;;3.54;56.61;97165.94;5001375;28;20054;-61
2021/04/16 06:02:58;;;;;;;13.70;8.63;;;;;;;2.57;59.45;97167.06;5009748;28;20046;-58
2021/04/16 06:05:23;;;;;;;13.10;6.65;;;;;;;3.54;56.98;97168.63;4994195;28;20844;-60
2021/04/16 06:07:51;;;;;;;9.80;6.38;;;;;;;4.04;54.94;97170.34;5001451;28;20088;-61
2021/04/16 06:10:17;;;;;;;8.45;6.40;;;;;;;3.24;56.65;97166.38;4996130;28;20042;-60
2021/04/16 06:12:43;;;;;;;12.52;6.97;;;;;;;3.64;55.00;97171.91;4995125;28;20072;-61
2021/04/16 06:15:15;;;;;;;8.35;5.95;;;;;;;4.26;53.51;97166.75;4995346;28;20077;-61
2021/04/16 06:17:40;;;;;;;7.43;5.97;;;;;;;3.61;54.30;97163.59;4992448;28;20072;-58
2021/04/16 06:20:07;;;;;;;12.68;6.38;;;;;;;3.54;55.60;97155.88;4995036;28;20042;-60
2021/04/16 06:22:33;;;;;;;9.27;6.60;;;;;;;4.65;53.29;97165.91;5000917;28;20038;-59
2021/04/16 06:24:58;;;;;;;11.18;6.85;;;;;;;2.53;57.45;97160.66;4992042;28;20071;-61
2021/04/16 06:27:24;;;;;;;10.68;6.45;;;;;;;3.13;56.49;97158.78;4992323;28;20449;-63
2021/04/16 06:29:49;;;;;;;8.82;6.53;;;;;;;3.73;55.44;97161.09;4995521;28;20045;-59
2021/04/16 06:32:16;;;;;;;11.75;6.88;;;;;;;1.62;61.02;97162.16;4987981;28;20488;-62
2021/04/16 06:34:42;;;;;;;11.65;7.13;;;;;;;2.48;58.22;97172.41;5001077;28;20053;-61
2021/04/16 06:37:08;;;;;;;12.73;7.10;;;;;;;2.20;59.69;97163.50;4996197;28;20125;-61
2021/04/16 06:39:34;;;;;;;9.68;6.65;;;;;;;3.01;57.57;97164.75;4998825;28;20121;-61
2021/04/16 06:42:04;;;;;;;11.07;6.57;;;;;;;3.27;57.59;97162.25;5005555;28;20524;-62
2021/04/16 06:44:31;;;;;;;;;;;;;;;3.35;56.66;97168.81;5006069;28;20878;-62
2021/04/16 06:47:03;;;;;;;9.77;6.70;;;;;;;4.06;55.68;97168.91;5003574;28;19917;-60
2021/04/16 06:49:30;;;;;;;7.93;5.70;;;;;;;3.48;56.47;97153.63;4986732;28;20540;-60
2021/04/16 06:52:25;;;;;;;9.57;7.30;;;;;;;2.56;59.41;97165.47;4997300;28;20049;-62
2021/04/16 06:55:11;;;;;;;9.65;7.00;;;;;;;2.54;59.03;97161.44;4993100;28;20057;-61
2021/04/16 06:58:18;;;;;;;13.90;7.50;;;;;;;3.99;56.34;97169.34;4993653;28;20129;-62
2021/04/16 07:01:08;;;;;;;12.13;7.05;;;;;;;3.19;56.89;97163.00;4975664;28;20181;-61
2021/04/16 07:03:40;;;;;;;;;;;;;;;3.58;57.66;97161.50;5010204;28;20514;-60
2021/04/16 07:06:23;;;;;;;11.43;7.65;;;;;;;2.98;58.64;97155.34;5001584;28;19921;-60
2021/04/16 07:09:04;;;;;;;9.30;6.75;;;;;;;3.59;56.90;97168.50;5018847;28;20063;-58
2021/04/16 07:11:38;;;;;;;10.30;6.95;;;;;;;3.47;59.06;97160.94;5019588;28;20048;-58
2021/04/16 07:14:09;;;;;;;12.02;7.90;;;;;;;4.75;53.89;97164.78;5014073;28;20042;-62
2021/04/16 07:16:35;;;;;;;9.40;7.05;;;;;;;3.47;56.46;97173.69;5010642;28;20046;-60
2021/04/16 07:19:05;;;;;;;10.30;6.80;;;;;;;4.39;55.17;97161.22;5009870;28;20624;-60
2021/04/16 07:21:31;;;;;;;14.15;7.47;;;;;;;4.30;55.46;97163.09;5017305;28;20037;-61
2021/04/16 07:24:02;;;;;;;8.90;6.70;;;;;;;4.89;52.93;97156.50;5019983;28;20041;-61
2021/04/16 07:26:36;;;;;;;11.60;6.82;;;;;;;6.41;49.73;97157.19;5016350;28;20111;-61
2021/04/16 07:29:03;;;;;;;12.48;7.45;;;;;;;3.91;54.84;97162.00;5018334;28;20412;-62
2021/04/16 07:31:51;;;;;;;10.13;7.28;;;;;;;3.34;57.96;97172.66;5010293;28;20050;-61
2021/04/16 07:34:29;;;;;;;10.45;7.10;;;;;;;4.44;55.36;97171.13;5010762;28;20092;-58
2021/04/16 07:37:13;;;;;;;11.73;6.57;;;;;;;5.66;51.64;97171.16;5020563;28;20041;-61
2021/04/16 07:39:46;;;;;;;11.48;6.68;;;;;;;6.32;50.00;97165.38;5005257;28;20045;-60
2021/04/16 07:42:20;;;;;;;9.82;7.00;;;;;;;4.90;52.97;97166.28;5001487;28;20132;-60
2021/04/16 07:45:38;;;;;;;12.52;8.30;;;;;;;4.70;52.79;97165.75;5022119;28;20650;-62
2021/04/16 07:48:19;;;;;;;12.90;7.70;;;;;;;3.97;55.32;97173.50;4977547;28;20046;-61
2021/04/16 07:50:56;;;;;;;12.07;8.88;;;;;;;4.14;55.41;97165.44;5025812;28;20068;-60
2021/04/16 07:53:31;;;;;;;11.27;8.07;;;;;;;3.95;55.88;97173.81;5023694;28;20041;-58
2021/04/16 07:56:15;;;;;;;12.63;8.68;;;;;;;4.20;55.61;97174.25;5013876;28;20099;-60
2021/04/16 07:58:42;;;;;;;11.40;8.43;;;;;;;3.68;56.46;97174.00;5016181;28;20048;-60
2021/04/16 08:01:19;;;;;;;12.75;8.10;;;;;;;5.64;53.09;97167.97;5018453;28;20049;-62
2021/04/16 08:04:04;;;;;;;13.35;9.32;;;;;;;5.66;52.23;97165.72;5023815;28;20197;-61
2021/04/16 08:06:35;;;;;;;14.20;9.10;;;;;;;5.75;49.36;97163.78;4985787;28;20060;-62
2021/04/16 08:09:05;;;;;;;11.05;7.22;;;;;;;6.43;48.03;97162.31;4999945;28;20038;-62
2021/04/16 08:11:32;;;;;;;11.07;7.18;;;;;;;5.87;49.76;97162.31;5003550;28;20042;-61
2021/04/16 08:14:20;;;;;;;14.80;7.97;;;;;;;4.57;53.64;97162.06;5003274;28;20046;-62
2021/04/16 08:16:57;;;;;;;12.82;7.65;;;;;;;5.17;53.07;97165.16;4999406;28;20044;-63
2021/04/16 08:19:34;;;;;;;10.57;6.93;;;;;;;4.91;53.91;97162.41;5010707;28;20266;-63
2021/04/16 08:22:06;;;;;;;11.48;7.63;;;;;;;6.27;49.07;97164.78;5012450;28;20138;-64
2021/04/16 08:25:08;;;;;;;11.80;7.13;;;;;;;8.07;44.60;97158.53;5002211;28;20362;-61
2021/04/16 08:27:45;;;;;;;10.27;6.43;;;;;;;8.83;42.02;97161.75;4999332;28;20096;-62
2021/04/16 08:30:29;;;;;;;11.02;7.85;;;;;;;5.16;51.10;97158.91;4994215;28;20054;-61
2021/04/16 08:33:15;;;;;;;11.35;7.47;;;;;;;5.11;50.99;97161.81;4999038;28;20129;-62
2021/04/16 08:35:59;;;;;;;10.18;6.88;;;;;;;7.13;47.73;97165.38;5001800;28;20081;-62
2021/04/16 08:38:30;;;;;;;12.13;7.90;;;;;;;5.72;50.03;97163.63;4991036;28;20648;-62
2021/04/16 08:41:01;;;;;;;11.07;6.80;;;;;;;6.76;47.44;97156.19;5003892;28;20111;-62
2021/04/16 08:43:32;;;;;;;13.38;7.88;;;;;;;5.85;48.25;97159.13;4997744;28;20050;-61
2021/04/16 08:45:59;;;;;;;9.40;6.03;;;;;;;7.42;45.38;97155.53;5003237;28;20041;-60
2021/04/16 08:48:30;;;;;;;9.52;6.80;;;;;;;5.67;48.83;97150.22;4996799;28;20041;-61
2021/04/16 08:51:11;;;;;;;9.18;7.22;;;;;;;5.50;51.11;97151.06;5003199;28;20046;-59
2021/04/16 08:53:39;;;;;;;9.93;6.70;;;;;;;6.22;49.20;97156.81;4995376;28;20108;-61
2021/04/16 08:56:16;;;;;;;9.68;6.55;;;;;;;7.00;46.48;97152.81;4995514;28;20057;-62
2021/04/16 08:58:42;;;;;;;9.43;6.43;;;;;;;8.33;44.60;97154.69;4997860;28;20053;-61
2021/04/16 09:01:07;;;;;;;11.38;6.35;;;;;;;5.93;47.55;97145.50;4998227;28;20103;-65
2021/04/16 09:03:44;;;;;;;8.85;6.28;;;;;;;7.27;48.82;97151.47;5000252;28;20469;-63
2021/04/16 09:06:21;;;;;;;9.50;6.30;;;;;;;6.82;47.42;97147.47;4990937;28;20129;-62
2021/04/16 09:08:48;;;;;;;8.88;6.53;;;;;;;6.53;48.54;97151.03;5013051;28;20044;-62
2021/04/16 09:11:43;;;;;;;7.45;5.55;;;;;;;8.46;45.04;97139.91;4995731;28;20045;-61
2021/04/16 09:14:29;;;;;;;10.27;7.38;;;;;;;6.38;48.25;97148.88;4995245;28;20050;-62
2021/04/16 09:17:07;;;;;;;11.15;7.05;;;;;;;5.96;49.32;97146.00;4992717;28;20412;-62
2021/04/16 09:19:33;;;;;;;10.65;7.05;;;;;;;7.21;47.21;97139.19;4994738;28;20392;-61
2021/04/16 09:22:01;;;;;;;9.18;6.20;;;;;;;6.78;47.79;97145.75;5002302;28;20048;-62
2021/04/16 09:24:56;;;;;;;9.13;6.25;;;;;;;6.97;45.74;97145.28;4989131;28;20049;-61
2021/04/16 09:27:39;;;;;;;8.38;6.07;;;;;;;8.35;43.66;97141.50;4997269;28;20060;-63
2021/04/16 09:30:07;;;;;;;9.57;6.10;;;;;;;9.95;40.22;97141.03;4998976;28;20073;-65
2021/04/16 09:32:33;;;;;;;9.55;5.40;;;;;;;8.59;43.21;97140.75;4999016;28;20045;-64
2021/04/16 09:35:03;;;;;;;8.63;5.25;;;;;;;8.66;42.73;97134.69;5001595;28;20046;-62
2021/04/16 09:37:36;;;;;;;9.60;6.63;;;;;;;6.91;44.66;97131.09;5000759;28;20064;-63
2021/04/16 09:40:16;;;;;;;7.30;5.45;;;;;;;8.00;45.01;97139.19;5000871;28;20517;-66
2021/04/16 09:42:54;;;;;;;7.50;5.85;;;;;;;8.19;41.74;97141.38;5000426;28;20042;-62
2021/04/16 09:45:28;;;;;;;8.13;6.20;;;;;;;7.04;43.27;97134.66;4996895;28;20054;-64
2021/04/16 09:48:04;;;;;;;8.48;6.97;;;;;;;5.67;46.28;97132.00;5001803;28;20034;-60
2021/04/16 09:50:33;;;;;;;9.77;6.88;;;;;;;5.60;47.07;97128.19;5002291;28;20050;-61
2021/04/16 09:53:29;;;;;;;7.35;5.70;;;;;;;7.05;44.27;97126.16;5001070;28;20046;-60
2021/04/16 09:55:55;;;;;;;8.40;5.60;;;;;;;7.93;42.52;97133.50;4976286;28;20052;-63
2021/04/16 09:58:33;;;;;;;8.40;5.82;;;;;;;9.29;38.65;97121.34;4976807;28;20038;-63
2021/04/16 10:01:05;;;;;;;6.93;5.60;;;;;;;9.91;38.76;97127.28;4986991;28;20052;-62
2021/04/16 10:03:34;;;;;;;7.25;5.25;;;;;;;8.57;41.02;97132.88;4993415;28;20077;-61
2021/04/16 10:06:15;;;;;;;10.07;7.65;;;;;;;8.80;38.18;97119.53;5003583;28;20177;-62
2021/04/16 10:08:43;;;;;;;10.30;5.63;;;;;;;8.11;42.47;97123.19;5003901;28;20050;-62
2021/04/16 10:11:09;;;;;;;8.10;5.88;;;;;;;10.56;38.48;97117.91;4998784;28;20038;-62
2021/04/16 10:13:39;;;;;;;9.38;5.70;;;;;;;9.56;37.26;97114.25;4999407;28;20042;-63
2021/04/16 10:16:25;;;;;;;7.90;6.00;;;;;;;7.26;42.80;97125.38;4988388;28;20108;-65
2021/04/16 10:18:51;;;;;;;6.40;5.18;;;;;;;7.46;41.66;97121.00;5001372;28;20124;-62
2021/04/16 10:21:17;;;;;;;10.82;5.30;;;;;;;8.15;40.74;97119.41;4996266;28;20527;-63
2021/04/16 10:23:51;;;;;;;6.65;4.85;;;;;;;9.49;35.88;97115.97;5003453;28;20042;-60
2021/04/16 10:27:48;;;;;;;6.43;5.22;;;;;;;10.61;36.56;97106.69;4992706;28;20045;-62
2021/04/16 10:30:31;;;;;;;7.18;5.22;;;;;;;10.89;34.76;97100.25;4993184;28;20493;-63
2021/04/16 12:41:14;;;;;;;6.50;4.63;;;;;;;8.21;38.04;97068.16;4998162;28;20034;-61
2021/04/16 12:43:40;;;;;;;7.72;5.05;;;;;;;7.54;38.43;97065.59;5003126;28;20448;-60
2021/04/16 12:46:08;;;;;;;6.85;4.70;;;;;;;7.70;38.61;97068.47;4999224;28;20041;-62
2021/04/16 12:48:33;;;;;;;9.35;4.53;;;;;;;8.53;38.26;97050.06;5013504;28;20053;-62
2021/04/16 12:50:59;;;;;;;6.80;3.80;;;;;;;8.84;36.89;97056.00;5018903;28;20041;-63
2021/04/16 12:53:24;;;;;;;6.53;4.80;;;;;;;7.91;34.84;97046.56;5003604;28;20057;-60
2021/04/16 12:55:49;;;;;;;6.35;4.18;;;;;;;8.78;36.37;97048.06;5016009;28;20041;-64
2021/04/16 12:58:27;;;;;;;6.80;3.83;;;;;;;9.54;36.68;97047.38;5011493;28;20040;-63
2021/04/16 13:00:52;;;;;;;5.18;3.80;;;;;;;9.12;37.42;97045.88;4999093;28;20068;-63
2021/04/16 13:03:40;;;;;;;5.57;4.22;;;;;;;7.97;39.15;97047.13;4998597;28;20488;-62
2021/04/16 13:06:14;;;;;;;5.28;4.43;;;;;;;7.82;37.96;97048.59;4997445;28;20125;-62
2021/04/16 13:08:40;;;;;;;6.20;4.47;;;;;;;8.12;39.43;97049.19;5000204;28;20034;-58
2021/04/16 13:11:05;;;;;;;6.28;4.35;;;;;;;8.29;37.82;97045.41;4997113;28;20129;-64
2021/04/16 13:13:31;;;;;;;5.20;3.80;;;;;;;9.34;36.25;97041.00;5002587;28;20041;-62
2021/04/16 13:15:56;;;;;;;7.40;4.28;;;;;;;10.02;34.65;97037.25;5003303;28;20441;-60
2021/04/16 13:18:31;;;;;;;4.93;3.85;;;;;;;8.97;36.34;97031.03;4999065;28;20602;-60
2021/04/16 13:20:57;;;;;;;6.05;3.97;;;;;;;9.83;36.62;97031.69;5003779;28;20042;-63
2021/04/16 13:23:22;;;;;;;4.38;3.75;;;;;;;8.94;36.42;97022.75;4998645;28;20606;-63
2021/04/16 13:25:48;;;;;;;5.05;3.60;;;;;;;9.57;35.89;97019.34;5004076;28;20631;-64
2021/04/16 13:28:13;;;;;;;3.75;3.20;;;;;;;10.29;34.40;97018.31;4997384;28;20038;-61
2021/04/16 13:30:39;;;;;;;4.95;3.45;;;;;;;10.52;34.02;97011.03;5002803;28;20164;-63
2021/04/16 13:33:18;;;;;;;6.30;4.15;;;;;;;8.95;37.30;97018.88;5003365;28;20598;-64
2021/04/16 13:35:54;;;;;;;6.07;4.20;;;;;;;9.37;36.80;97019.22;5009408;28;20056;-63
2021/04/16 13:38:30;;;;;;;5.72;4.10;;;;;;;8.04;37.69;97015.41;4997789;28;20046;-63
2021/04/16 13:40:59;;;;;;;5.97;4.35;;;;;;;8.05;37.73;97018.97;5002741;28;20460;-63
2021/04/16 13:43:24;;;;;;;7.35;4.50;;;;;;;8.69;36.15;97008.38;4997347;28;20274;-59
2021/04/16 13:45:50;;;;;;;6.15;4.38;;;;;;;9.02;37.01;96999.13;5002731;28;20061;-61
2021/04/16 13:48:16;;;;;;;6.30;4.20;;;;;;;8.71;37.03;97004.16;4979610;28;20069;-62
2021/04/16 13:50:43;;;;;;;6.13;4.45;;;;;;;8.78;37.52;97006.31;4982675;28;20054;-61
2021/04/16 13:53:09;;;;;;;6.05;4.47;;;;;;;8.72;36.91;97005.75;4977188;28;20038;-62
2021/04/16 13:55:34;;;;;;;7.38;5.32;;;;;;;8.27;39.24;96995.84;4982150;28;20042;-62